createdAt,value
2023-05-06T00:02:17.799Z,3.40
2023-05-06T00:04:44.740Z,3.80
2023-05-06T00:07:12.012Z,3.60
2023-05-06T00:09:38.912Z,3.30
2023-05-06T00:12:05.798Z,3.40
2023-05-06T00:14:32.540Z,3.90
2023-05-06T00:16:59.447Z,3.70
2023-05-06T00:19:26.897Z,4.00
2023-05-06T00:21:53.736Z,3.70
2023-05-06T00:24:20.493Z,4.10
2023-05-06T00:26:47.259Z,3.50
2023-05-06T00:29:14.058Z,3.50
2023-05-06T00:31:41.358Z,3.50
2023-05-06T00:34:08.972Z,3.90
2023-05-06T00:36:36.601Z,3.50
2023-05-06T00:39:03.840Z,3.20
2023-05-06T00:41:31.262Z,3.90
2023-05-06T00:43:58.186Z,3.70
2023-05-06T00:46:25.123Z,3.40
2023-05-06T00:48:52.550Z,3.80
2023-05-06T00:51:19.408Z,4.40
2023-05-06T00:53:49.613Z,3.80
2023-05-06T00:56:20.597Z,3.90
2023-05-06T00:58:48.139Z,4.10
2023-05-06T01:01:15.834Z,3.10
2023-05-06T01:03:42.937Z,3.20
2023-05-06T01:06:22.502Z,3.60
2023-05-06T01:08:57.947Z,3.60
2023-05-06T01:11:28.359Z,3.20
2023-05-06T01:14:08.139Z,4.00
2023-05-06T01:16:36.659Z,3.60
2023-05-06T01:19:06.416Z,4.00
2023-05-06T01:21:35.033Z,3.80
2023-05-06T01:24:02.353Z,3.80
2023-05-06T01:26:29.199Z,3.70
2023-05-06T01:28:56.589Z,3.80
2023-05-06T01:31:27.640Z,3.40
2023-05-06T01:34:00.354Z,3.70
2023-05-06T01:36:53.834Z,3.10
2023-05-06T01:39:24.979Z,3.30
2023-05-06T01:41:52.112Z,2.90
2023-05-06T01:44:20.505Z,2.80
2023-05-06T01:46:48.857Z,3.00
2023-05-06T01:49:17.230Z,2.90
2023-05-06T01:51:48.113Z,3.10
2023-05-06T01:54:14.941Z,3.20
2023-05-06T01:56:41.889Z,3.50
2023-05-06T01:59:08.709Z,2.90
2023-05-06T02:01:35.833Z,2.70
2023-05-06T02:04:03.165Z,2.80
2023-05-06T02:06:30.288Z,2.70
2023-05-06T02:08:57.130Z,2.70
2023-05-06T02:11:25.198Z,2.60
2023-05-06T02:13:55.269Z,2.40
2023-05-06T02:16:22.388Z,2.60
2023-05-06T02:18:49.708Z,3.20
2023-05-06T02:21:16.521Z,3.10
2023-05-06T02:23:43.349Z,3.10
2023-05-06T02:26:10.966Z,3.60
2023-05-06T02:28:37.806Z,3.40
2023-05-06T02:31:04.644Z,4.10
2023-05-06T02:33:31.495Z,3.70
2023-05-06T02:35:58.349Z,3.60
2023-05-06T02:38:26.399Z,3.30
2023-05-06T02:40:53.531Z,3.60
2023-05-06T02:43:20.493Z,3.70
2023-05-06T02:45:47.371Z,3.10
2023-05-06T02:48:14.383Z,3.60
2023-05-06T02:50:41.434Z,3.60
2023-05-06T02:53:09.708Z,3.70
2023-05-06T02:55:36.511Z,3.40
2023-05-06T02:58:03.397Z,3.40
2023-05-06T03:00:30.236Z,3.00
2023-05-06T03:02:57.042Z,3.10
2023-05-06T03:05:24.021Z,3.40
2023-05-06T03:07:50.964Z,3.30
2023-05-06T03:10:17.863Z,3.40
2023-05-06T03:12:45.278Z,2.70
2023-05-06T03:15:12.684Z,3.10
2023-05-06T03:17:39.791Z,2.80
2023-05-06T03:20:08.676Z,2.80
2023-05-06T03:22:37.119Z,2.30
2023-05-06T03:25:04.254Z,3.00
2023-05-06T03:27:31.438Z,2.80
2023-05-06T03:30:01.030Z,3.20
2023-05-06T03:32:27.994Z,3.10
2023-05-06T03:34:55.243Z,3.20
2023-05-06T03:37:22.221Z,2.60
2023-05-06T03:39:52.278Z,3.60
2023-05-06T03:42:19.345Z,3.10
2023-05-06T03:44:46.404Z,3.30
2023-05-06T03:47:13.553Z,2.50
2023-05-06T03:49:40.355Z,2.70
2023-05-06T03:52:07.863Z,2.90
2023-05-06T03:54:34.698Z,3.70
2023-05-06T03:57:02.775Z,3.30
2023-05-06T03:59:30.803Z,3.10
2023-05-06T04:01:58.071Z,3.30
2023-05-06T04:04:27.551Z,3.60
2023-05-06T04:06:54.392Z,3.30
2023-05-06T04:09:21.276Z,3.90
2023-05-06T04:11:48.731Z,3.50
2023-05-06T04:14:16.191Z,3.50
2023-05-06T04:16:43.256Z,3.80
2023-05-06T04:19:10.894Z,3.80
2023-05-06T04:21:38.510Z,3.80
2023-05-06T04:24:07.996Z,3.60
2023-05-06T04:26:37.324Z,3.10
2023-05-06T04:29:04.359Z,3.50
2023-05-06T04:31:33.090Z,3.70
2023-05-06T04:34:02.953Z,3.80
2023-05-06T04:36:30.852Z,3.50
2023-05-06T04:39:18.336Z,3.30
2023-05-06T04:41:45.452Z,3.50
2023-05-06T04:44:14.755Z,3.00
2023-05-06T04:46:42.620Z,3.40
2023-05-06T04:49:12.399Z,3.00
2023-05-06T04:51:39.803Z,2.50
2023-05-06T04:54:07.040Z,4.00
2023-05-06T04:56:34.242Z,3.60
2023-05-06T04:59:01.009Z,3.80
2023-05-06T05:01:28.675Z,3.40
2023-05-06T05:03:55.785Z,4.00
2023-05-06T05:06:22.584Z,3.50
2023-05-06T05:08:49.383Z,4.10
2023-05-06T05:11:16.745Z,4.40
2023-05-06T05:13:43.521Z,4.10
2023-05-06T05:16:11.091Z,4.00
2023-05-06T05:18:39.536Z,4.80
2023-05-06T05:21:12.227Z,5.20
2023-05-06T05:23:39.192Z,5.60
2023-05-06T05:26:06.231Z,5.80
2023-05-06T05:28:33.364Z,5.50
2023-05-06T05:31:03.413Z,6.50
2023-05-06T05:33:31.065Z,6.00
2023-05-06T05:35:58.523Z,6.00
2023-05-06T05:38:25.725Z,6.10
2023-05-06T05:40:53.142Z,6.40
2023-05-06T05:43:22.113Z,5.50
2023-05-06T05:45:49.367Z,5.80
2023-05-06T05:48:16.413Z,5.70
2023-05-06T05:50:43.460Z,5.30
2023-05-06T05:53:10.301Z,6.60
2023-05-06T05:55:37.657Z,6.70
2023-05-06T05:58:05.196Z,6.70
2023-05-06T06:00:32.383Z,5.80
2023-05-06T06:03:02.346Z,7.00
2023-05-06T06:05:29.132Z,6.80
2023-05-06T06:07:58.215Z,6.60
2023-05-06T06:10:25.754Z,6.00
2023-05-06T06:12:52.944Z,7.20
2023-05-06T06:15:27.462Z,7.70
2023-05-06T06:17:55.151Z,8.20
2023-05-06T06:20:22.724Z,7.70
2023-05-06T06:22:49.526Z,7.60
2023-05-06T06:25:16.780Z,8.40
2023-05-06T06:27:43.637Z,9.20
2023-05-06T06:30:11.123Z,8.80
2023-05-06T06:32:47.168Z,9.20
2023-05-06T06:35:14.034Z,8.90
2023-05-06T06:37:40.976Z,8.70
2023-05-06T06:40:08.430Z,8.60
2023-05-06T06:42:35.237Z,8.10
2023-05-06T06:45:20.352Z,8.30
2023-05-06T06:47:47.147Z,7.80
2023-05-06T06:50:14.005Z,7.80
2023-05-06T06:52:40.820Z,7.70
2023-05-06T06:55:08.378Z,10.10
2023-05-06T06:57:36.830Z,9.00
2023-05-06T07:00:04.570Z,7.30
2023-05-06T07:02:31.472Z,8.80
2023-05-06T07:04:58.280Z,7.90
2023-05-06T07:07:25.057Z,8.20
2023-05-06T07:09:51.788Z,7.90
2023-05-06T07:12:18.663Z,8.10
2023-05-06T07:14:45.561Z,8.10
2023-05-06T07:17:12.845Z,8.50
2023-05-06T07:19:39.641Z,7.40
2023-05-06T07:22:06.444Z,7.80
2023-05-06T07:24:33.460Z,7.20
2023-05-06T07:27:02.653Z,10.40
2023-05-06T07:29:29.575Z,7.30
2023-05-06T07:31:56.550Z,6.70
2023-05-06T07:34:23.273Z,8.10
2023-05-06T07:36:50.685Z,8.10
2023-05-06T07:39:17.506Z,9.00
2023-05-06T07:41:44.467Z,8.70
2023-05-06T07:44:11.235Z,8.10
2023-05-06T07:46:39.389Z,7.80
2023-05-06T07:49:06.423Z,6.80
2023-05-06T07:51:33.292Z,7.50
2023-05-06T07:54:00.053Z,7.20
2023-05-06T07:56:26.884Z,6.80
2023-05-06T07:58:54.102Z,7.70
2023-05-06T08:01:21.013Z,8.30
2023-05-06T08:03:47.990Z,8.20
2023-05-06T08:06:14.922Z,8.80
2023-05-06T08:08:41.682Z,7.30
2023-05-06T08:11:08.474Z,7.90
2023-05-06T08:13:35.619Z,6.90
2023-05-06T08:16:02.636Z,7.60
2023-05-06T08:18:30.052Z,5.70
2023-05-06T08:20:56.968Z,6.30
2023-05-06T08:23:23.772Z,7.10
2023-05-06T08:25:50.651Z,7.00
2023-05-06T08:28:17.485Z,6.70
2023-05-06T08:30:48.019Z,8.00
2023-05-06T08:33:14.851Z,6.80
2023-05-06T08:35:41.908Z,7.90
2023-05-06T08:38:08.751Z,7.60
2023-05-06T08:40:42.192Z,7.80
2023-05-06T08:43:12.416Z,7.90
2023-05-06T08:45:39.649Z,7.20
2023-05-06T08:48:07.190Z,6.80
2023-05-06T08:50:36.088Z,8.30
2023-05-06T08:53:03.016Z,7.70
2023-05-06T08:55:31.181Z,7.50
2023-05-06T08:57:58.217Z,7.60
2023-05-06T09:00:25.202Z,6.90
2023-05-06T09:02:52.091Z,7.30
2023-05-06T09:05:18.897Z,7.10
2023-05-06T09:07:45.784Z,7.00
2023-05-06T09:10:13.896Z,7.20
2023-05-06T09:12:41.330Z,6.70
2023-05-06T09:15:09.685Z,7.30
2023-05-06T09:17:37.099Z,6.50
2023-05-06T09:20:06.557Z,6.30
2023-05-06T09:22:33.423Z,5.80
2023-05-06T09:25:00.344Z,5.50
2023-05-06T09:27:28.521Z,5.60
2023-05-06T09:30:03.153Z,4.60
2023-05-06T09:32:30.232Z,5.90
2023-05-06T09:34:57.164Z,5.50
2023-05-06T09:37:26.531Z,5.60
2023-05-06T09:39:57.520Z,6.00
2023-05-06T09:42:25.509Z,5.30
2023-05-06T09:44:57.110Z,5.70
2023-05-06T09:47:26.231Z,4.90
2023-05-06T09:50:02.301Z,4.00
2023-05-06T09:52:29.470Z,4.40
2023-05-06T09:54:57.197Z,4.40
2023-05-06T09:57:24.586Z,4.10
2023-05-06T09:59:54.952Z,5.00
2023-05-06T10:02:23.194Z,4.70
2023-05-06T10:04:51.454Z,5.00
2023-05-06T10:07:22.937Z,4.70
2023-05-06T10:09:51.556Z,5.30
2023-05-06T10:12:19.193Z,4.40
2023-05-06T10:14:46.245Z,4.80
2023-05-06T10:17:13.937Z,4.10
2023-05-06T10:19:43.023Z,5.50
2023-05-06T10:22:33.040Z,4.70
2023-05-06T10:25:03.836Z,4.60
2023-05-06T10:27:32.124Z,4.40
2023-05-06T10:30:00.161Z,5.00
2023-05-06T10:32:31.670Z,4.50
2023-05-06T10:35:04.620Z,8.10
2023-05-06T10:37:33.308Z,7.60
2023-05-06T10:40:00.227Z,4.80
2023-05-06T10:42:28.643Z,3.70
2023-05-06T10:45:06.078Z,3.60
2023-05-06T10:47:56.704Z,3.90
2023-05-06T10:50:27.464Z,4.00
2023-05-06T10:52:56.143Z,3.70
2023-05-06T10:55:29.949Z,5.20
2023-05-06T10:57:57.819Z,4.60
2023-05-06T11:00:24.859Z,6.10
2023-05-06T11:02:57.902Z,6.60
2023-05-06T11:05:25.084Z,4.40
2023-05-06T11:07:55.399Z,3.90
2023-05-06T11:10:33.134Z,4.10
2023-05-06T11:13:19.233Z,3.60
2023-05-06T11:15:46.551Z,4.30
2023-05-06T11:18:26.613Z,3.90
2023-05-06T11:21:03.892Z,4.20
2023-05-06T11:23:49.773Z,3.70
2023-05-06T11:26:17.261Z,4.00
2023-05-06T11:28:45.555Z,4.00
2023-05-06T11:31:13.196Z,4.80
2023-05-06T11:33:46.796Z,4.00
2023-05-06T11:36:17.942Z,4.00
2023-05-06T11:38:46.006Z,3.10
2023-05-06T11:41:13.267Z,3.20
2023-05-06T11:43:40.404Z,3.40
2023-05-06T11:46:07.734Z,3.80
2023-05-06T11:48:34.831Z,4.00
2023-05-06T11:51:02.296Z,3.50
2023-05-06T11:53:30.132Z,3.60
2023-05-06T11:55:57.195Z,4.00
2023-05-06T11:58:28.953Z,3.30
2023-05-06T12:00:56.411Z,3.60
2023-05-06T12:03:24.803Z,4.10
2023-05-06T12:05:52.549Z,3.40
2023-05-06T12:08:39.599Z,3.90
2023-05-06T12:11:07.724Z,4.20
2023-05-06T12:13:39.278Z,4.00
2023-05-06T12:16:08.446Z,4.40
2023-05-06T12:18:35.979Z,3.70
2023-05-06T12:21:03.253Z,3.60
2023-05-06T12:23:30.122Z,4.10
2023-05-06T12:26:06.401Z,3.80
2023-05-06T12:28:33.791Z,5.10
2023-05-06T12:31:01.291Z,3.70
2023-05-06T12:33:28.141Z,3.20
2023-05-06T12:36:06.377Z,3.40
2023-05-06T12:38:33.399Z,3.80
2023-05-06T12:41:00.171Z,3.60
2023-05-06T12:43:31.085Z,3.30
2023-05-06T12:46:05.421Z,4.40
2023-05-06T12:48:32.585Z,5.60
2023-05-06T12:50:59.294Z,4.00
2023-05-06T12:53:33.318Z,3.30
2023-05-06T12:56:00.462Z,3.40
2023-05-06T12:58:27.277Z,3.10
2023-05-06T13:00:54.136Z,3.40
2023-05-06T13:03:21.373Z,3.50
2023-05-06T13:05:50.382Z,3.30
2023-05-06T13:08:17.343Z,3.20
2023-05-06T13:10:44.174Z,2.80
2023-05-06T13:13:11.166Z,3.00
2023-05-06T13:15:39.287Z,4.20
2023-05-06T13:18:06.094Z,2.70
2023-05-06T13:20:33.158Z,4.40
2023-05-06T13:23:00.027Z,3.30
2023-05-06T13:25:26.864Z,4.80
2023-05-06T13:27:53.719Z,2.30
2023-05-06T13:30:21.147Z,2.60
2023-05-06T13:32:48.982Z,3.10
2023-05-06T13:35:15.871Z,2.90
2023-05-06T13:37:42.666Z,3.50
2023-05-06T13:40:10.095Z,3.10
2023-05-06T13:42:37.048Z,3.00
2023-05-06T13:45:04.063Z,3.10
2023-05-06T13:47:31.287Z,3.30
2023-05-06T13:49:57.977Z,2.40
2023-05-06T13:52:24.803Z,2.50
2023-05-06T13:54:51.529Z,2.50
2023-05-06T13:57:19.113Z,2.00
2023-05-06T13:59:46.309Z,2.40
2023-05-06T14:02:13.878Z,2.70
2023-05-06T14:04:41.295Z,3.30
2023-05-06T14:07:08.102Z,2.40
2023-05-06T14:09:34.953Z,2.30
2023-05-06T14:12:03.433Z,2.10
2023-05-06T14:14:30.674Z,2.60
2023-05-06T14:16:57.517Z,2.90
2023-05-06T14:19:24.294Z,2.40
2023-05-06T14:21:52.016Z,2.60
2023-05-06T14:24:18.823Z,2.20
2023-05-06T14:26:46.342Z,2.40
2023-05-06T14:29:13.240Z,2.00
2023-05-06T14:31:40.067Z,2.30
2023-05-06T14:34:06.938Z,2.30
2023-05-06T14:36:33.908Z,1.70
2023-05-06T14:39:01.104Z,2.00
2023-05-06T14:41:27.990Z,1.90
2023-05-06T14:43:55.029Z,1.90
2023-05-06T14:46:21.938Z,1.90
2023-05-06T14:48:48.787Z,2.00
2023-05-06T14:51:15.765Z,2.10
2023-05-06T14:53:42.524Z,2.20
2023-05-06T14:56:10.642Z,1.70
2023-05-06T14:58:37.457Z,2.10
2023-05-06T15:01:04.466Z,2.00
2023-05-06T15:03:31.622Z,2.20
2023-05-06T15:05:58.503Z,1.80
2023-05-06T15:08:26.560Z,2.10
2023-05-06T15:10:53.578Z,1.80
2023-05-06T15:13:20.426Z,1.50
2023-05-06T15:15:47.470Z,2.20
2023-05-06T15:18:14.556Z,2.20
2023-05-06T15:20:41.566Z,2.10
2023-05-06T15:23:08.336Z,2.50
2023-05-06T15:25:36.548Z,2.40
2023-05-06T15:28:04.637Z,2.10
2023-05-06T15:30:31.693Z,2.00
2023-05-06T15:32:58.730Z,2.30
2023-05-06T15:35:25.897Z,2.20
2023-05-06T15:37:59.448Z,2.40
2023-05-06T15:40:27.565Z,2.10
2023-05-06T15:42:54.422Z,2.00
2023-05-06T15:45:22.315Z,2.50
2023-05-06T15:47:49.392Z,2.40
2023-05-06T15:50:25.260Z,2.10
2023-05-06T15:52:59.339Z,1.90
2023-05-06T15:55:26.694Z,2.00
2023-05-06T15:57:55.008Z,2.20
2023-05-06T16:00:22.402Z,2.10
2023-05-06T16:02:49.405Z,2.30
2023-05-06T16:05:16.996Z,2.00
2023-05-06T16:07:44.136Z,2.10
2023-05-06T16:10:11.485Z,2.20
2023-05-06T16:12:38.544Z,2.40
2023-05-06T16:15:05.890Z,2.60
2023-05-06T16:17:37.967Z,2.50
2023-05-06T16:20:05.526Z,2.10
2023-05-06T16:22:32.354Z,2.70
2023-05-06T16:24:59.195Z,2.50
2023-05-06T16:27:28.380Z,2.20
2023-05-06T16:29:56.896Z,2.70
2023-05-06T16:32:24.059Z,2.70
2023-05-06T16:34:51.025Z,2.60
2023-05-06T16:37:17.813Z,2.30
2023-05-06T16:39:44.759Z,2.30
2023-05-06T16:42:11.604Z,2.50
2023-05-06T16:44:38.462Z,2.30
2023-05-06T16:47:06.028Z,2.70
2023-05-06T16:49:33.989Z,2.80
2023-05-06T16:52:01.033Z,2.20
2023-05-06T16:54:28.089Z,2.10
2023-05-06T16:56:55.277Z,2.40
2023-05-06T16:59:22.649Z,2.40
2023-05-06T17:01:50.265Z,3.00
2023-05-06T17:04:17.333Z,3.00
2023-05-06T17:06:44.538Z,2.80
2023-05-06T17:09:11.586Z,2.60
2023-05-06T17:11:38.426Z,3.20
2023-05-06T17:14:05.194Z,2.90
2023-05-06T17:16:32.187Z,3.30
2023-05-06T17:18:59.368Z,2.80
2023-05-06T17:21:28.047Z,2.90
2023-05-06T17:23:54.938Z,3.50
2023-05-06T17:26:22.233Z,2.60
2023-05-06T17:28:49.638Z,3.00
2023-05-06T17:31:16.951Z,3.90
2023-05-06T17:33:47.377Z,3.60
2023-05-06T17:36:16.267Z,3.70
2023-05-06T17:38:43.521Z,3.30
2023-05-06T17:41:10.570Z,3.00
2023-05-06T17:43:37.356Z,4.30
2023-05-06T17:46:04.150Z,4.10
2023-05-06T17:48:31.070Z,4.00
2023-05-06T17:51:02.226Z,3.70
2023-05-06T17:53:29.672Z,4.10
2023-05-06T17:55:56.534Z,3.70
2023-05-06T17:58:23.589Z,3.90
2023-05-06T18:00:50.440Z,3.90
2023-05-06T18:03:17.330Z,3.80
2023-05-06T18:05:44.534Z,4.40
2023-05-06T18:08:11.596Z,3.90
2023-05-06T18:10:39.038Z,4.40
2023-05-06T18:13:07.530Z,4.20
2023-05-06T18:15:34.290Z,4.70
2023-05-06T18:18:01.299Z,5.60
2023-05-06T18:20:28.649Z,4.80
2023-05-06T18:22:56.513Z,4.80
2023-05-06T18:25:23.769Z,4.90
2023-05-06T18:27:50.612Z,4.50
2023-05-06T18:30:17.463Z,5.10
2023-05-06T18:32:44.347Z,4.30
2023-05-06T18:35:11.573Z,5.10
2023-05-06T18:37:39.662Z,4.70
2023-05-06T18:40:09.278Z,4.70
2023-05-06T18:42:36.368Z,4.50
2023-05-06T18:45:05.007Z,4.10
2023-05-06T18:47:32.393Z,4.10
2023-05-06T18:50:01.200Z,4.60
2023-05-06T18:52:28.045Z,4.30
2023-05-06T18:54:55.090Z,4.90
2023-05-06T18:57:22.154Z,4.30
2023-05-06T18:59:49.088Z,4.30
2023-05-06T19:02:15.874Z,4.10
2023-05-06T19:04:42.874Z,4.50
2023-05-06T19:07:11.084Z,4.60
2023-05-06T19:09:37.854Z,6.30
2023-05-06T19:12:04.748Z,9.40
2023-05-06T19:14:35.158Z,9.70
2023-05-06T19:17:03.219Z,8.30
2023-05-06T19:19:30.483Z,8.90
2023-05-06T19:21:57.617Z,7.50
2023-05-06T19:24:24.379Z,7.80
2023-05-06T19:26:51.168Z,7.60
2023-05-06T19:29:18.277Z,8.60
2023-05-06T19:31:45.515Z,8.90
2023-05-06T19:34:12.357Z,10.20
2023-05-06T19:36:39.202Z,12.50
2023-05-06T19:39:06.043Z,13.30
2023-05-06T19:41:32.830Z,16.20
2023-05-06T19:43:59.728Z,12.40
2023-05-06T19:46:26.580Z,15.60
2023-05-06T19:48:53.395Z,14.30
2023-05-06T19:51:20.141Z,12.20
2023-05-06T19:53:46.902Z,11.80
2023-05-06T19:56:15.166Z,16.20
2023-05-06T19:58:42.042Z,11.70
2023-05-06T20:01:10.118Z,11.90
2023-05-06T20:03:37.204Z,10.80
2023-05-06T20:06:04.588Z,11.20
2023-05-06T20:08:31.391Z,11.10
2023-05-06T20:10:58.412Z,10.40
2023-05-06T20:13:25.345Z,8.20
2023-05-06T20:15:53.415Z,7.70
2023-05-06T20:18:20.440Z,8.10
2023-05-06T20:20:47.441Z,6.60
2023-05-06T20:23:14.945Z,6.20
2023-05-06T20:25:41.792Z,7.20
2023-05-06T20:28:08.536Z,7.80
2023-05-06T20:30:35.392Z,8.30
2023-05-06T20:33:02.281Z,9.60
2023-05-06T20:35:29.217Z,9.50
2023-05-06T20:37:56.208Z,8.20
2023-05-06T20:40:23.274Z,7.30
2023-05-06T20:42:50.026Z,8.00
2023-05-06T20:45:16.935Z,9.30
2023-05-06T20:47:44.607Z,10.50
2023-05-06T20:50:17.304Z,9.50
2023-05-06T20:52:46.150Z,9.80
2023-05-06T20:55:16.094Z,11.00
2023-05-06T20:57:44.284Z,10.20
2023-05-06T21:00:12.131Z,10.10
2023-05-06T21:02:41.311Z,9.60
2023-05-06T21:05:09.435Z,8.60
2023-05-06T21:07:36.963Z,9.10
2023-05-06T21:10:06.013Z,7.90
2023-05-06T21:12:33.643Z,9.30
2023-05-06T21:15:00.788Z,8.70
2023-05-06T21:17:28.622Z,8.10
2023-05-06T21:19:56.250Z,8.10
2023-05-06T21:22:23.752Z,7.50
2023-05-06T21:24:51.292Z,6.80
2023-05-06T21:27:18.694Z,6.20
2023-05-06T21:29:45.574Z,6.30
2023-05-06T21:32:12.544Z,6.10
2023-05-06T21:34:39.609Z,6.00
2023-05-06T21:37:06.568Z,6.10
2023-05-06T21:39:33.474Z,6.50
2023-05-06T21:42:00.214Z,6.00
2023-05-06T21:44:27.367Z,6.50
2023-05-06T21:46:54.185Z,7.20
2023-05-06T21:49:22.345Z,6.30
2023-05-06T21:51:49.632Z,6.40
2023-05-06T21:54:17.605Z,6.70
2023-05-06T21:56:44.935Z,6.10
2023-05-06T21:59:11.915Z,5.70
2023-05-06T22:01:38.868Z,6.30
2023-05-06T22:04:11.545Z,6.40
2023-05-06T22:06:39.470Z,7.30
2023-05-06T22:09:09.845Z,6.60
2023-05-06T22:11:40.467Z,6.00
2023-05-06T22:14:07.302Z,6.40
2023-05-06T22:16:35.821Z,6.60
2023-05-06T22:19:05.117Z,6.40
2023-05-06T22:21:33.993Z,7.40
2023-05-06T22:24:01.232Z,6.70
2023-05-06T22:26:28.689Z,7.00
2023-05-06T22:28:55.784Z,6.60
2023-05-06T22:31:24.505Z,7.10
2023-05-06T22:33:58.095Z,6.50
2023-05-06T22:36:29.656Z,6.70
2023-05-06T22:38:56.887Z,6.80
2023-05-06T22:41:24.068Z,7.40
2023-05-06T22:43:50.805Z,6.40
2023-05-06T22:46:17.862Z,5.80
2023-05-06T22:48:44.895Z,5.70
2023-05-06T22:51:12.413Z,6.20
2023-05-06T22:53:39.298Z,5.80
2023-05-06T22:56:06.298Z,5.30
2023-05-06T22:58:33.207Z,5.70
2023-05-06T23:01:00.067Z,5.30
2023-05-06T23:03:26.903Z,5.80
2023-05-06T23:05:53.843Z,5.40
2023-05-06T23:08:21.183Z,5.10
2023-05-06T23:10:47.925Z,5.30
2023-05-06T23:13:14.888Z,5.40
2023-05-06T23:15:41.920Z,5.60
2023-05-06T23:18:08.717Z,5.70
2023-05-06T23:20:35.480Z,5.00
2023-05-06T23:23:02.273Z,4.70
2023-05-06T23:25:29.121Z,5.20
2023-05-06T23:27:56.553Z,4.80
2023-05-06T23:30:23.586Z,4.90
2023-05-06T23:32:50.493Z,4.50
2023-05-06T23:35:17.673Z,5.00
2023-05-06T23:37:44.518Z,4.70
2023-05-06T23:40:13.577Z,5.20
2023-05-06T23:42:41.894Z,5.10
2023-05-06T23:45:09.514Z,4.50
2023-05-06T23:47:36.648Z,5.00
2023-05-06T23:50:03.855Z,5.00
2023-05-06T23:52:30.899Z,4.90
2023-05-06T23:54:57.751Z,4.20
2023-05-06T23:57:24.585Z,4.40
2023-05-06T23:59:51.428Z,4.70
